Time;durP1;ratioP1;P1;durP2;ratioP2;P2;SDS_P1;SDS_P2;PMS_P1;PMS_P2;Temp;Humidity;BMP_temperature;BMP_pressure;BME280_temperature;BME280_humidity;BME280_pressure;Samples;Min_cycle;Max_cycle;Signal;HPM_P1;HPM_P2
2021/06/26 00:02:10;;;;;;;5.23;4.83;;;;;;;;;;5023639;28;20554;-62
2021/06/26 00:04:37;;;;;;;5.40;4.97;;;;;;;;;;5028320;28;20670;-63
2021/06/26 00:07:03;;;;;;;5.07;4.67;;;;;;;;;;5030460;28;20255;-62
2021/06/26 00:09:28;;;;;;;5.00;4.60;;;;;;;;;;5017438;28;20499;-64
2021/06/26 00:11:53;;;;;;;5.50;5.00;;;;;;;;;;5021693;28;20306;-63
2021/06/26 00:14:19;;;;;;;4.83;4.50;;;;;;;;;;5028041;28;20230;-63
2021/06/26 00:16:44;;;;;;;5.10;4.77;;;;;;;;;;5030551;28;20368;-62
2021/06/26 00:19:09;;;;;;;4.97;4.47;;;;;;;;;;5025353;28;20252;-63
2021/06/26 00:21:34;;;;;;;5.80;4.97;;;;;;;;;;5023690;28;20321;-63
2021/06/26 00:24:00;;;;;;;5.50;5.00;;;;;;;;;;5028603;28;20233;-63
2021/06/26 00:26:25;;;;;;;5.70;5.20;;;;;;;;;;5023106;28;20217;-62
2021/06/26 00:28:51;;;;;;;5.53;5.03;;;;;;;;;;5025199;28;20322;-64
2021/06/26 00:31:16;;;;;;;5.67;5.03;;;;;;;;;;5022389;28;20304;-63
2021/06/26 00:33:41;;;;;;;5.90;5.30;;;;;;;;;;5024383;28;20226;-63
2021/06/26 00:36:07;;;;;;;5.60;4.90;;;;;;;;;;5022987;28;20659;-64
2021/06/26 00:38:32;;;;;;;5.23;4.73;;;;;;;;;;5029015;28;20241;-63
2021/06/26 00:40:57;;;;;;;5.43;4.90;;;;;;;;;;5017009;28;20222;-64
2021/06/26 00:43:22;;;;;;;5.40;4.60;;;;;;;;;;5028139;28;20652;-63
2021/06/26 00:45:48;;;;;;;5.10;4.70;;;;;;;;;;5030155;28;20222;-63
2021/06/26 00:48:13;;;;;;;5.63;5.13;;;;;;;;;;5022720;28;20236;-63
2021/06/26 00:50:39;;;;;;;4.87;4.47;;;;;;;;;;5023730;28;20260;-63
2021/06/26 00:53:04;;;;;;;5.50;5.10;;;;;;;;;;5025120;28;20693;-62
2021/06/26 00:55:30;;;;;;;5.10;4.70;;;;;;;;;;5020536;28;20316;-63
2021/06/26 00:57:58;;;;;;;4.80;4.40;;;;;;;;;;5025104;28;20218;-63
2021/06/26 01:00:26;;;;;;;5.43;4.93;;;;;;;;;;5022641;28;20476;-63
2021/06/26 01:02:52;;;;;;;5.83;4.90;;;;;;;;;;5034458;28;20456;-64
2021/06/26 01:05:18;;;;;;;5.77;5.27;;;;;;;;;;5020191;28;20526;-64
2021/06/26 01:07:43;;;;;;;6.37;5.30;;;;;;;;;;5025355;28;20222;-63
2021/06/26 01:10:09;;;;;;;5.13;4.77;;;;;;;;;;5022513;28;20724;-63
2021/06/26 01:12:35;;;;;;;4.83;4.53;;;;;;;;;;5027795;28;20222;-62
2021/06/26 01:15:00;;;;;;;5.93;5.43;;;;;;;;;;5029107;28;20226;-62
2021/06/26 01:17:25;;;;;;;5.53;5.10;;;;;;;;;;5024523;28;20237;-62
2021/06/26 01:19:51;;;;;;;5.03;4.63;;;;;;;;;;5022321;28;20226;-62
2021/06/26 01:22:20;;;;;;;4.80;4.40;;;;;;;;;;5027870;28;20222;-63
2021/06/26 01:24:45;;;;;;;5.13;4.70;;;;;;;;;;5029141;28;20248;-62
2021/06/26 01:27:11;;;;;;;5.60;4.73;;;;;;;;;;5016090;28;20477;-63
2021/06/26 01:29:36;;;;;;;4.87;4.43;;;;;;;;;;5028991;28;20229;-62
2021/06/26 01:32:05;;;;;;;6.53;5.60;;;;;;;;;;5016573;28;20219;-63
2021/06/26 01:34:30;;;;;;;6.30;5.40;;;;;;;;;;5018533;28;20688;-63
2021/06/26 01:36:55;;;;;;;5.07;4.60;;;;;;;;;;5029264;28;20466;-63
2021/06/26 01:39:21;;;;;;;5.83;5.33;;;;;;;;;;5016694;28;20659;-64
2021/06/26 01:41:46;;;;;;;5.03;4.63;;;;;;;;;;5033604;28;20218;-63
2021/06/26 01:44:11;;;;;;;5.87;5.37;;;;;;;;;;5024085;28;20246;-62
2021/06/26 01:46:38;;;;;;;6.07;5.50;;;;;;;;;;5029014;28;20222;-63
2021/06/26 01:49:11;;;;;;;5.60;5.10;;;;;;;;;;5025800;28;20666;-63
2021/06/26 01:51:37;;;;;;;5.30;4.90;;;;;;;;;;5021793;28;20931;-62
2021/06/26 01:54:04;;;;;;;5.17;4.77;;;;;;;;;;5023196;28;20568;-62
2021/06/26 01:56:30;;;;;;;5.60;5.13;;;;;;;;;;5020130;28;20461;-62
2021/06/26 01:58:55;;;;;;;5.53;5.00;;;;;;;;;;5024123;28;20461;-64
2021/06/26 02:01:21;;;;;;;5.60;5.10;;;;;;;;;;5028132;28;20257;-62
2021/06/26 02:03:46;;;;;;;7.20;5.10;;;;;;;;;;5026453;28;20321;-63
2021/06/26 02:06:12;;;;;;;6.03;5.53;;;;;;;;;;5021565;28;20225;-62
2021/06/26 02:08:37;;;;;;;5.53;5.10;;;;;;;;;;5024177;28;20235;-63
2021/06/26 02:11:02;;;;;;;6.07;5.47;;;;;;;;;;5027854;28;20296;-63
2021/06/26 02:13:27;;;;;;;5.93;5.43;;;;;;;;;;5024209;28;20225;-63
2021/06/26 02:15:53;;;;;;;5.80;5.40;;;;;;;;;;5021824;28;20221;-62
2021/06/26 02:18:18;;;;;;;5.83;5.40;;;;;;;;;;5024125;28;20309;-62
2021/06/26 02:20:43;;;;;;;6.37;5.87;;;;;;;;;;5028152;28;20238;-63
2021/06/26 02:23:08;;;;;;;6.10;5.60;;;;;;;;;;5024733;28;20308;-63
2021/06/26 02:25:34;;;;;;;6.40;5.23;;;;;;;;;;5021748;28;20240;-62
2021/06/26 02:27:59;;;;;;;5.70;5.30;;;;;;;;;;5025191;28;20599;-63
2021/06/26 02:30:24;;;;;;;6.10;5.53;;;;;;;;;;5027652;28;20219;-62
2021/06/26 02:32:49;;;;;;;6.27;5.77;;;;;;;;;;5024623;28;20217;-62
2021/06/26 02:35:15;;;;;;;5.40;4.90;;;;;;;;;;5020624;28;20356;-63
2021/06/26 02:37:40;;;;;;;6.00;5.50;;;;;;;;;;5025336;28;20549;-62
2021/06/26 02:40:06;;;;;;;5.77;5.30;;;;;;;;;;5027620;28;20221;-63
2021/06/26 02:42:31;;;;;;;6.10;5.70;;;;;;;;;;5023864;28;20659;-63
2021/06/26 02:44:56;;;;;;;6.30;5.80;;;;;;;;;;5021504;28;20491;-63
2021/06/26 02:47:22;;;;;;;6.00;5.50;;;;;;;;;;5025057;28;20555;-63
2021/06/26 02:49:48;;;;;;;6.27;5.87;;;;;;;;;;5028001;28;20226;-62
2021/06/26 02:52:13;;;;;;;6.30;5.80;;;;;;;;;;5022923;28;20222;-62
2021/06/26 02:54:38;;;;;;;7.07;6.47;;;;;;;;;;5016400;28;20231;-63
2021/06/26 02:57:04;;;;;;;6.30;5.80;;;;;;;;;;5013079;28;20360;-63
2021/06/26 02:59:29;;;;;;;6.33;5.83;;;;;;;;;;5020113;28;20222;-63
2021/06/26 03:01:54;;;;;;;6.03;5.53;;;;;;;;;;5025119;28;20781;-63
2021/06/26 03:04:20;;;;;;;6.07;5.57;;;;;;;;;;5027022;28;20218;-64
2021/06/26 03:06:45;;;;;;;6.73;5.70;;;;;;;;;;5023312;28;20226;-63
2021/06/26 03:09:10;;;;;;;6.83;6.33;;;;;;;;;;5020269;28;20673;-63
2021/06/26 03:11:35;;;;;;;6.80;5.87;;;;;;;;;;5025356;28;20230;-62
2021/06/26 03:14:01;;;;;;;7.80;7.13;;;;;;;;;;5027027;28;20292;-63
2021/06/26 03:16:26;;;;;;;6.73;6.20;;;;;;;;;;5022616;28;20226;-63
2021/06/26 03:18:51;;;;;;;6.37;5.87;;;;;;;;;;5020504;28;20222;-64
2021/06/26 03:21:16;;;;;;;7.07;6.47;;;;;;;;;;5024907;28;20338;-64
2021/06/26 03:23:42;;;;;;;6.93;6.33;;;;;;;;;;5026365;28;20225;-66
2021/06/26 03:26:07;;;;;;;6.80;6.23;;;;;;;;;;5021657;28;20225;-63
2021/06/26 03:28:33;;;;;;;8.80;7.20;;;;;;;;;;5025224;28;20229;-62
2021/06/26 03:31:00;;;;;;;7.60;7.00;;;;;;;;;;5029355;28;20244;-63
2021/06/26 03:33:25;;;;;;;8.10;6.73;;;;;;;;;;5031243;28;20956;-62
2021/06/26 03:35:50;;;;;;;7.50;6.90;;;;;;;;;;5021760;28;20464;-63
2021/06/26 03:38:16;;;;;;;7.93;7.33;;;;;;;;;;5032107;28;20387;-63
2021/06/26 03:40:41;;;;;;;7.80;7.20;;;;;;;;;;5021551;28;20222;-63
2021/06/26 03:43:06;;;;;;;7.23;6.63;;;;;;;;;;5020144;28;20245;-62
2021/06/26 03:45:31;;;;;;;7.80;7.07;;;;;;;;;;5033371;28;20222;-63
2021/06/26 03:47:57;;;;;;;8.33;7.63;;;;;;;;;;5020246;28;20588;-62
2021/06/26 03:50:22;;;;;;;8.13;7.00;;;;;;;;;;5026287;28;20254;-63
2021/06/26 03:52:47;;;;;;;8.13;7.53;;;;;;;;;;5027095;28;20214;-63
2021/06/26 03:55:13;;;;;;;7.30;6.70;;;;;;;;;;5006499;28;20294;-63
2021/06/26 03:57:38;;;;;;;8.40;7.63;;;;;;;;;;5021413;28;20217;-63
2021/06/26 04:00:05;;;;;;;9.17;8.47;;;;;;;;;;5020648;28;20230;-63
2021/06/26 04:02:30;;;;;;;7.60;7.00;;;;;;;;;;5023718;28;20284;-62
2021/06/26 04:04:55;;;;;;;7.50;6.80;;;;;;;;;;5026651;28;20461;-63
2021/06/26 04:07:20;;;;;;;8.30;7.60;;;;;;;;;;5026551;28;20656;-63
2021/06/26 04:09:46;;;;;;;7.90;7.30;;;;;;;;;;5020428;28;20230;-63
2021/06/26 04:12:11;;;;;;;8.37;7.67;;;;;;;;;;5020218;28;20658;-62
2021/06/26 04:14:36;;;;;;;8.40;7.60;;;;;;;;;;5026607;28;20234;-63
2021/06/26 04:17:02;;;;;;;8.70;6.97;;;;;;;;;;5026532;28;20305;-63
2021/06/26 04:19:27;;;;;;;7.67;6.90;;;;;;;;;;5019643;28;20237;-62
2021/06/26 04:21:53;;;;;;;8.97;8.20;;;;;;;;;;5020383;28;20309;-63
2021/06/26 04:24:18;;;;;;;6.97;6.37;;;;;;;;;;5025362;28;20304;-62
2021/06/26 04:26:43;;;;;;;6.77;6.23;;;;;;;;;;5026294;28;20540;-62
2021/06/26 04:29:09;;;;;;;7.37;6.77;;;;;;;;;;5019619;28;20218;-63
2021/06/26 04:31:34;;;;;;;8.07;7.33;;;;;;;;;;5020721;28;20723;-63
2021/06/26 04:33:59;;;;;;;7.30;6.70;;;;;;;;;;5029145;28;20246;-63
2021/06/26 04:36:25;;;;;;;9.23;8.20;;;;;;;;;;5029379;28;20680;-62
2021/06/26 04:38:50;;;;;;;8.27;7.47;;;;;;;;;;5030796;28;20318;-63
2021/06/26 04:41:15;;;;;;;8.03;7.43;;;;;;;;;;5027902;28;20226;-63
2021/06/26 04:43:40;;;;;;;6.93;6.23;;;;;;;;;;5023600;28;20230;-63
2021/06/26 04:46:09;;;;;;;8.07;7.33;;;;;;;;;;5025586;28;20301;-63
2021/06/26 04:48:40;;;;;;;8.33;7.57;;;;;;;;;;5029687;28;20246;-63
2021/06/26 04:51:05;;;;;;;8.60;7.73;;;;;;;;;;5028857;28;20527;-63
2021/06/26 04:53:31;;;;;;;7.90;7.23;;;;;;;;;;5021574;28;20477;-63
2021/06/26 04:55:56;;;;;;;7.97;7.27;;;;;;;;;;5010167;28;20226;-62
2021/06/26 04:58:23;;;;;;;8.17;7.43;;;;;;;;;;5028999;28;20230;-63
2021/06/26 05:00:50;;;;;;;8.30;7.57;;;;;;;;;;5029584;28;20690;-63
2021/06/26 05:03:17;;;;;;;7.50;6.80;;;;;;;;;;5025921;28;20535;-62
2021/06/26 05:05:42;;;;;;;8.20;7.00;;;;;;;;;;5032121;28;20787;-63
2021/06/26 05:08:08;;;;;;;8.40;7.60;;;;;;;;;;5029899;28;20458;-63
2021/06/26 05:10:33;;;;;;;7.83;7.13;;;;;;;;;;5028930;28;20628;-62
2021/06/26 05:12:58;;;;;;;8.20;7.50;;;;;;;;;;5022734;28;20226;-63
2021/06/26 05:15:23;;;;;;;7.83;7.10;;;;;;;;;;5023491;28;20333;-62
2021/06/26 05:17:49;;;;;;;7.90;7.20;;;;;;;;;;5029504;28;20222;-63
2021/06/26 05:20:16;;;;;;;7.30;6.67;;;;;;;;;;5027808;28;20238;-63
2021/06/26 05:22:42;;;;;;;7.73;7.10;;;;;;;;;;5022635;28;20210;-64
2021/06/26 05:25:07;;;;;;;7.13;6.50;;;;;;;;;;5023365;28;20468;-64
2021/06/26 05:27:33;;;;;;;7.37;6.67;;;;;;;;;;5028892;28;20241;-64
2021/06/26 05:29:58;;;;;;;5.93;5.43;;;;;;;;;;5028508;28;20221;-63
2021/06/26 05:32:23;;;;;;;7.30;6.60;;;;;;;;;;5022295;28;20676;-62
2021/06/26 05:34:48;;;;;;;7.97;7.27;;;;;;;;;;5023396;28;20226;-64
2021/06/26 05:37:14;;;;;;;14.13;6.67;;;;;;;;;;5029386;28;20219;-64
2021/06/26 05:39:39;;;;;;;7.00;6.40;;;;;;;;;;5027785;28;20229;-64
2021/06/26 05:42:04;;;;;;;6.50;5.90;;;;;;;;;;5022157;28;20289;-63
2021/06/26 05:44:30;;;;;;;7.00;6.50;;;;;;;;;;5023163;28;20697;-63
2021/06/26 05:46:55;;;;;;;6.73;6.13;;;;;;;;;;5029252;28;20301;-64
2021/06/26 05:49:20;;;;;;;7.17;6.40;;;;;;;;;;5026556;28;20222;-63
2021/06/26 05:51:45;;;;;;;6.80;6.27;;;;;;;;;;5022054;28;20764;-64
2021/06/26 05:54:11;;;;;;;7.00;6.50;;;;;;;;;;5024072;28;20230;-64
2021/06/26 05:56:36;;;;;;;6.50;5.63;;;;;;;;;;5020279;28;20296;-63
2021/06/26 05:59:01;;;;;;;7.67;7.07;;;;;;;;;;5030883;28;20229;-63
2021/06/26 06:01:26;;;;;;;6.87;6.27;;;;;;;;;;5028419;28;20297;-64
2021/06/26 06:03:53;;;;;;;7.90;7.20;;;;;;;;;;5026805;28;20654;-63
2021/06/26 06:06:18;;;;;;;7.30;6.60;;;;;;;;;;5021619;28;20218;-63
2021/06/26 06:08:43;;;;;;;6.83;6.33;;;;;;;;;;5023703;28;20552;-63
2021/06/26 06:11:09;;;;;;;6.63;6.07;;;;;;;;;;5028402;28;20670;-63
2021/06/26 06:13:34;;;;;;;6.60;6.10;;;;;;;;;;5025953;28;20225;-62
2021/06/26 06:15:59;;;;;;;7.37;6.67;;;;;;;;;;5021492;28;20338;-63
2021/06/26 06:18:24;;;;;;;6.80;6.20;;;;;;;;;;5023741;28;20219;-62
2021/06/26 06:20:50;;;;;;;6.80;6.30;;;;;;;;;;5028029;28;20603;-62
2021/06/26 06:23:16;;;;;;;6.63;6.07;;;;;;;;;;5025390;28;20224;-62
2021/06/26 06:25:41;;;;;;;6.97;6.27;;;;;;;;;;5020917;28;20222;-63
2021/06/26 06:28:06;;;;;;;6.57;5.97;;;;;;;;;;5024726;28;20290;-63
2021/06/26 06:30:35;;;;;;;7.27;6.60;;;;;;;;;;5027720;28;20281;-62
2021/06/26 06:33:00;;;;;;;7.20;6.60;;;;;;;;;;5025125;28;20218;-62
2021/06/26 06:35:26;;;;;;;6.90;6.30;;;;;;;;;;5020888;28;20475;-62
2021/06/26 06:37:52;;;;;;;7.40;6.80;;;;;;;;;;5024288;28;20249;-62
2021/06/26 06:40:17;;;;;;;7.10;6.47;;;;;;;;;;5027987;28;20493;-61
2021/06/26 06:42:43;;;;;;;8.20;7.40;;;;;;;;;;5024428;28;20259;-62
2021/06/26 06:45:09;;;;;;;7.60;6.93;;;;;;;;;;5020954;28;20564;-63
2021/06/26 06:47:34;;;;;;;6.53;6.03;;;;;;;;;;5023924;28;20222;-62
2021/06/26 06:50:00;;;;;;;6.87;6.37;;;;;;;;;;5027685;28;20465;-62
2021/06/26 06:52:25;;;;;;;7.53;6.93;;;;;;;;;;5023819;28;20555;-62
2021/06/26 06:54:50;;;;;;;7.30;6.80;;;;;;;;;;5013298;28;20254;-63
2021/06/26 06:57:20;;;;;;;8.10;7.37;;;;;;;;;;5015753;28;20689;-63
2021/06/26 06:59:45;;;;;;;6.53;5.97;;;;;;;;;;5020522;28;21154;-63
2021/06/26 07:02:10;;;;;;;6.60;6.00;;;;;;;;;;5022929;28;20461;-62
2021/06/26 07:04:35;;;;;;;6.17;5.67;;;;;;;;;;5027171;28;20222;-62
2021/06/26 07:07:01;;;;;;;6.20;5.60;;;;;;;;;;5025295;28;20301;-61
2021/06/26 07:09:26;;;;;;;6.60;5.50;;;;;;;;;;5020363;28;20213;-62
2021/06/26 07:11:51;;;;;;;7.13;6.50;;;;;;;;;;5023658;28;20600;-61
2021/06/26 07:14:17;;;;;;;6.00;5.50;;;;;;;;;;5027526;28;20238;-61
2021/06/26 07:16:43;;;;;;;6.90;5.77;;;;;;;;;;5023793;28;20248;-62
2021/06/26 07:19:08;;;;;;;6.80;6.17;;;;;;;;;;5020587;28;20468;-62
2021/06/26 07:21:33;;;;;;;6.33;5.73;;;;;;;;;;5023723;28;20322;-62
2021/06/26 07:23:59;;;;;;;6.37;5.63;;;;;;;;;;5027576;28;20245;-63
2021/06/26 07:26:24;;;;;;;11.93;5.27;;;;;;;;;;5023170;28;20644;-62
2021/06/26 07:28:49;;;;;;;5.63;5.13;;;;;;;;;;5020461;28;20230;-62
2021/06/26 07:31:15;;;;;;;5.80;4.93;;;;;;;;;;5024888;28;20296;-62
2021/06/26 07:33:40;;;;;;;5.50;5.10;;;;;;;;;;5026591;28;20305;-61
2021/06/26 07:36:05;;;;;;;6.07;5.57;;;;;;;;;;5023203;28;20689;-63
2021/06/26 07:38:31;;;;;;;5.67;5.17;;;;;;;;;;5019723;28;20214;-63
2021/06/26 07:40:56;;;;;;;5.60;5.13;;;;;;;;;;5025441;28;20250;-62
2021/06/26 07:43:21;;;;;;;6.33;5.83;;;;;;;;;;5027654;28;20551;-62
2021/06/26 07:45:46;;;;;;;6.03;5.53;;;;;;;;;;5025884;28;20313;-64
2021/06/26 07:48:12;;;;;;;6.13;5.53;;;;;;;;;;5027082;28;20229;-62
2021/06/26 07:50:37;;;;;;;6.00;5.53;;;;;;;;;;5020833;28;20291;-63
2021/06/26 07:53:02;;;;;;;6.03;5.63;;;;;;;;;;5020315;28;20313;-64
2021/06/26 07:55:29;;;;;;;6.23;5.40;;;;;;;;;;5023811;28;20257;-63
2021/06/26 07:57:55;;;;;;;5.80;5.30;;;;;;;;;;5027106;28;20226;-63
2021/06/26 08:00:20;;;;;;;5.30;4.90;;;;;;;;;;5022976;28;20472;-63
2021/06/26 08:02:45;;;;;;;6.27;5.77;;;;;;;;;;5019118;28;20246;-63
2021/06/26 08:05:10;;;;;;;5.47;5.03;;;;;;;;;;5024708;28;20222;-64
2021/06/26 08:07:36;;;;;;;8.53;6.50;;;;;;;;;;5029177;28;20225;-62
2021/06/26 08:10:01;;;;;;;6.00;5.40;;;;;;;;;;5026497;28;20309;-62
2021/06/26 08:12:26;;;;;;;5.60;5.10;;;;;;;;;;5023542;28;20237;-63
2021/06/26 08:14:51;;;;;;;6.40;5.90;;;;;;;;;;5028346;28;20305;-63
2021/06/26 08:17:17;;;;;;;6.43;5.80;;;;;;;;;;5030728;28;20638;-63
2021/06/26 08:19:42;;;;;;;5.53;5.10;;;;;;;;;;5025647;28;20371;-63
2021/06/26 08:22:08;;;;;;;6.27;5.70;;;;;;;;;;5023901;28;20210;-63
2021/06/26 08:24:34;;;;;;;7.30;6.17;;;;;;;;;;5027996;28;20238;-63
2021/06/26 08:27:00;;;;;;;5.90;5.40;;;;;;;;;;5018973;28;20522;-63
2021/06/26 08:29:26;;;;;;;5.80;5.40;;;;;;;;;;5029514;28;20368;-63
2021/06/26 08:31:51;;;;;;;6.73;6.23;;;;;;;;;;5023267;28;20481;-63
2021/06/26 08:34:16;;;;;;;6.90;6.33;;;;;;;;;;5028845;28;20673;-62
2021/06/26 08:36:43;;;;;;;6.83;6.33;;;;;;;;;;5030133;28;20312;-62
2021/06/26 08:39:08;;;;;;;5.50;5.07;;;;;;;;;;5024776;28;20609;-63
2021/06/26 08:41:41;;;;;;;5.40;5.00;;;;;;;;;;5022944;28;20556;-63
2021/06/26 08:44:07;;;;;;;6.60;5.37;;;;;;;;;;5028114;28;20210;-63
2021/06/26 08:46:32;;;;;;;5.67;5.27;;;;;;;;;;5029705;28;20470;-62
2021/06/26 08:48:57;;;;;;;5.77;5.27;;;;;;;;;;5025231;28;20226;-63
2021/06/26 08:51:23;;;;;;;5.60;5.10;;;;;;;;;;5023056;28;20296;-63
2021/06/26 08:53:48;;;;;;;6.17;5.63;;;;;;;;;;5027814;28;20284;-63
2021/06/26 08:56:14;;;;;;;5.40;5.00;;;;;;;;;;5005048;28;20227;-63
2021/06/26 08:58:39;;;;;;;4.67;4.27;;;;;;;;;;5027123;28;20233;-63
2021/06/26 09:01:04;;;;;;;5.50;5.10;;;;;;;;;;5029943;28;20968;-63
2021/06/26 09:03:30;;;;;;;6.53;6.03;;;;;;;;;;5025221;28;20213;-63
2021/06/26 09:06:03;;;;;;;7.00;6.10;;;;;;;;;;5021744;28;20313;-63
2021/06/26 09:08:28;;;;;;;6.70;5.10;;;;;;;;;;5026738;28;20280;-64
2021/06/26 09:10:53;;;;;;;6.90;5.73;;;;;;;;;;5028823;28;20465;-62
2021/06/26 09:13:26;;;;;;;6.00;5.50;;;;;;;;;;5026262;28;20362;-63
2021/06/26 09:16:04;;;;;;;7.63;6.37;;;;;;;;;;5022636;28;20226;-62
2021/06/26 09:18:38;;;;;;;6.50;5.80;;;;;;;;;;5023105;28;20472;-63
2021/06/26 09:21:28;;;;;;;5.70;5.30;;;;;;;;;;5016912;28;20469;-63
2021/06/26 09:24:00;;;;;;;5.30;4.80;;;;;;;;;;5029218;28;20835;-62
2021/06/26 09:26:25;;;;;;;5.10;4.60;;;;;;;;;;5025962;28;20460;-62
2021/06/26 09:28:51;;;;;;;4.83;4.30;;;;;;;;;;5021119;28;20952;-63
2021/06/26 09:31:17;;;;;;;5.77;5.27;;;;;;;;;;5026512;28;20237;-63
2021/06/26 09:33:43;;;;;;;5.50;5.00;;;;;;;;;;5021041;28;20228;-63
2021/06/26 09:36:10;;;;;;;5.80;5.30;;;;;;;;;;5024344;28;20952;-63
2021/06/26 09:38:53;;;;;;;5.13;4.63;;;;;;;;;;5021908;28;20245;-62
2021/06/26 09:41:19;;;;;;;5.70;5.30;;;;;;;;;;5022921;28;20477;-63
2021/06/26 09:43:44;;;;;;;4.83;4.43;;;;;;;;;;5033167;28;20453;-63
2021/06/26 09:46:11;;;;;;;7.83;5.13;;;;;;;;;;5024181;28;20221;-63
2021/06/26 09:48:51;;;;;;;5.37;4.97;;;;;;;;;;5028431;28;20259;-63
2021/06/26 09:51:22;;;;;;;5.83;5.33;;;;;;;;;;5028241;28;20460;-63
2021/06/26 09:53:50;;;;;;;5.97;5.47;;;;;;;;;;5022063;28;20552;-63
2021/06/26 09:56:15;;;;;;;8.20;5.10;;;;;;;;;;5008609;28;20465;-63
2021/06/26 09:58:49;;;;;;;6.20;5.60;;;;;;;;;;5024892;28;20966;-63
2021/06/26 10:01:14;;;;;;;6.47;5.87;;;;;;;;;;5027605;28;20288;-62
2021/06/26 10:03:39;;;;;;;5.53;5.13;;;;;;;;;;5024916;28;20499;-62
2021/06/26 10:06:05;;;;;;;7.53;5.90;;;;;;;;;;5031422;28;20674;-62
2021/06/26 10:08:32;;;;;;;6.50;6.00;;;;;;;;;;5020934;28;20229;-62
2021/06/26 10:10:59;;;;;;;7.43;5.80;;;;;;;;;;5028032;28;20234;-62
2021/06/26 10:13:24;;;;;;;6.90;5.70;;;;;;;;;;5025039;28;20464;-62
2021/06/26 10:15:50;;;;;;;5.07;4.20;;;;;;;;;;5020432;28;20471;-62
2021/06/26 10:18:16;;;;;;;6.87;6.27;;;;;;;;;;5025353;28;20207;-62
2021/06/26 10:20:41;;;;;;;5.83;5.37;;;;;;;;;;5027676;28;20230;-62
2021/06/26 10:23:07;;;;;;;5.90;5.30;;;;;;;;;;5024886;28;20540;-63
2021/06/26 10:25:37;;;;;;;5.30;4.90;;;;;;;;;;5021343;28;20228;-62
2021/06/26 10:28:12;;;;;;;5.90;5.50;;;;;;;;;;5024578;28;20219;-63
2021/06/26 10:30:38;;;;;;;5.93;4.40;;;;;;;;;;5026167;28;20859;-62
2021/06/26 10:33:05;;;;;;;4.90;4.47;;;;;;;;;;5020060;28;20458;-62
2021/06/26 10:35:33;;;;;;;5.33;4.67;;;;;;;;;;5016442;28;20214;-63
2021/06/26 10:38:12;;;;;;;5.83;4.50;;;;;;;;;;5025299;28;20461;-61
2021/06/26 10:40:43;;;;;;;4.80;4.40;;;;;;;;;;5020687;28;20457;-63
2021/06/26 10:43:19;;;;;;;4.50;4.10;;;;;;;;;;5013351;28;20454;-64
2021/06/26 10:45:44;;;;;;;4.97;4.57;;;;;;;;;;5013097;28;20591;-63
2021/06/26 10:48:17;;;;;;;5.67;5.17;;;;;;;;;;5014718;28;21024;-63
2021/06/26 10:50:48;;;;;;;4.83;4.43;;;;;;;;;;5014606;28;20226;-63
2021/06/26 10:53:27;;;;;;;4.80;4.40;;;;;;;;;;5014177;28;20457;-63
2021/06/26 10:56:05;;;;;;;7.60;5.33;;;;;;;;;;5013258;28;20468;-63
2021/06/26 10:58:32;;;;;;;6.43;5.40;;;;;;;;;;5012804;28;20522;-63
2021/06/26 11:00:58;;;;;;;5.60;3.97;;;;;;;;;;5012199;28;20462;-64
2021/06/26 11:03:30;;;;;;;6.67;5.43;;;;;;;;;;5013033;28;20472;-63
2021/06/26 11:05:57;;;;;;;6.17;4.70;;;;;;;;;;5012481;28;20666;-64
2021/06/26 11:08:22;;;;;;;5.13;4.73;;;;;;;;;;5012391;28;20449;-63
2021/06/26 11:10:58;;;;;;;6.57;5.53;;;;;;;;;;5013636;28;20477;-63
2021/06/26 11:13:27;;;;;;;4.70;4.30;;;;;;;;;;5014003;28;20230;-63
2021/06/26 11:15:55;;;;;;;4.47;4.07;;;;;;;;;;5014437;28;20940;-63
2021/06/26 11:18:20;;;;;;;4.23;3.77;;;;;;;;;;5013416;28;20524;-63
2021/06/26 11:20:46;;;;;;;3.70;3.40;;;;;;;;;;5014033;28;20556;-62
2021/06/26 11:23:16;;;;;;;4.37;3.97;;;;;;;;;;5013347;28;20268;-62
2021/06/26 11:25:42;;;;;;;4.70;4.20;;;;;;;;;;5014054;28;20222;-63
2021/06/26 11:28:12;;;;;;;4.17;3.87;;;;;;;;;;4996021;28;20454;-63
2021/06/26 11:30:39;;;;;;;3.60;3.23;;;;;;;;;;5014012;28;20558;-63
2021/06/26 11:33:05;;;;;;;3.57;3.37;;;;;;;;;;5012337;28;20453;-62
2021/06/26 11:35:33;;;;;;;3.47;3.17;;;;;;;;;;5013960;28;20796;-63
2021/06/26 11:37:58;;;;;;;4.43;3.00;;;;;;;;;;5014022;28;20462;-63
2021/06/26 11:40:25;;;;;;;2.47;2.27;;;;;;;;;;5013355;28;20456;-63
2021/06/26 11:42:56;;;;;;;3.93;2.50;;;;;;;;;;5016842;28;20265;-63
2021/06/26 11:45:27;;;;;;;3.10;2.90;;;;;;;;;;5017649;28;20446;-63
2021/06/26 11:48:18;;;;;;;3.43;3.13;;;;;;;;;;5018311;28;20453;-63
2021/06/26 11:50:52;;;;;;;3.77;3.47;;;;;;;;;;5017487;28;20767;-62
2021/06/26 11:53:19;;;;;;;3.53;3.23;;;;;;;;;;5018063;28;20460;-63
2021/06/26 11:55:56;;;;;;;3.10;2.90;;;;;;;;;;5016656;28;21032;-63
2021/06/26 11:58:22;;;;;;;3.00;2.80;;;;;;;;;;5018443;28;20461;-64
2021/06/26 12:00:49;;;;;;;2.50;2.30;;;;;;;;;;5017438;28;20484;-63
2021/06/26 12:03:16;;;;;;;2.57;2.37;;;;;;;;;;5018546;28;20463;-63
2021/06/26 12:05:41;;;;;;;2.50;2.30;;;;;;;;;;5019374;28;20466;-63
2021/06/26 12:08:06;;;;;;;2.40;2.30;;;;;;;;;;5019766;28;20453;-63
2021/06/26 12:10:32;;;;;;;2.73;2.50;;;;;;;;;;5020068;28;20241;-63
2021/06/26 12:12:58;;;;;;;4.20;3.90;;;;;;;;;;5018019;28;20233;-63
2021/06/26 12:15:23;;;;;;;3.50;3.20;;;;;;;;;;5018595;28;20230;-63
2021/06/26 12:18:00;;;;;;;4.57;4.23;;;;;;;;;;5017973;28;20753;-63
2021/06/26 12:20:32;;;;;;;4.60;4.30;;;;;;;;;;5018101;28;20301;-63
2021/06/26 12:23:08;;;;;;;5.57;5.07;;;;;;;;;;5018104;28;20464;-63
2021/06/26 12:25:35;;;;;;;4.20;3.90;;;;;;;;;;5019493;28;20464;-64
2021/06/26 12:28:02;;;;;;;5.00;4.60;;;;;;;;;;5019674;28;20539;-63
2021/06/26 12:30:27;;;;;;;4.67;4.37;;;;;;;;;;5019704;28;20784;-64
2021/06/26 12:33:02;;;;;;;3.85;3.55;;;;;;;;;;5019517;28;20226;-63
2021/06/26 12:35:29;;;;;;;3.65;3.45;;;;;;;;;;5020869;28;20253;-63
2021/06/26 12:37:54;;;;;;;3.50;3.22;;;;;;;;;;5021057;28;20249;-63
2021/06/26 12:40:26;;;;;;;2.70;2.50;;;;;;;;;;5021646;28;20233;-64
2021/06/26 12:43:05;;;;;;;2.42;2.22;;;;;;;;;;5022125;28;20241;-63
2021/06/26 12:45:34;;;;;;;3.83;3.63;;;;;;;;;;5022669;28;20219;-63
2021/06/26 12:48:10;;;;;;;4.15;3.78;;;;;;;;;;5020555;28;20569;-63
2021/06/26 12:50:54;;;;;;;2.55;2.22;;;;;;;;;;5021429;28;20232;-62
2021/06/26 12:53:39;;;;;;;3.47;3.28;;;;;;;;;;5000527;28;20538;-63
2021/06/26 12:56:09;;;;;;;2.67;2.47;;;;;;;;;;5001879;28;20233;-63
2021/06/26 12:58:35;;;;;;;4.10;3.70;;;;;;;;;;5012728;28;20214;-63
2021/06/26 13:01:00;;;;;;;3.15;2.95;;;;;;;;;;5020887;28;20221;-63
2021/06/26 13:03:26;;;;;;;3.55;3.35;;;;;;;;;;5020913;28;20275;-63
2021/06/26 13:06:02;;;;;;;2.80;2.60;;;;;;;;;;5022100;28;20214;-63
2021/06/26 13:08:28;;;;;;;2.45;2.25;;;;;;;;;;5021016;28;20285;-63
2021/06/26 13:10:53;;;;;;;2.28;2.08;;;;;;;;;;5021736;28;20268;-63
2021/06/26 13:13:25;;;;;;;2.90;2.70;;;;;;;;;;5020588;28;20218;-63
2021/06/26 13:15:51;;;;;;;2.47;2.30;;;;;;;;;;5022262;28;20683;-63
2021/06/26 13:18:16;;;;;;;2.53;2.20;;;;;;;;;;5020605;28;20297;-62
2021/06/26 13:20:41;;;;;;;2.80;2.60;;;;;;;;;;5020064;28;20309;-63
2021/06/26 13:23:06;;;;;;;3.00;2.80;;;;;;;;;;5018671;28;20304;-63
2021/06/26 13:25:35;;;;;;;3.10;2.90;;;;;;;;;;5019830;28;20226;-63
2021/06/26 13:28:00;;;;;;;2.47;2.35;;;;;;;;;;5019423;28;20221;-63
2021/06/26 13:30:27;;;;;;;2.70;2.50;;;;;;;;;;5021591;28;20214;-63
2021/06/26 13:32:57;;;;;;;2.97;2.78;;;;;;;;;;5021712;28;20283;-63
2021/06/26 13:35:22;;;;;;;2.38;2.17;;;;;;;;;;5021028;28;20277;-63
2021/06/26 13:37:47;;;;;;;2.38;2.22;;;;;;;;;;5019994;28;20256;-63
2021/06/26 13:40:12;;;;;;;3.90;2.70;;;;;;;;;;5019430;28;20260;-63
2021/06/26 13:42:38;;;;;;;2.50;2.40;;;;;;;;;;5021391;28;20209;-63
2021/06/26 13:45:03;;;;;;;3.03;2.83;;;;;;;;;;5021249;28;20233;-63
2021/06/26 13:47:29;;;;;;;3.38;3.08;;;;;;;;;;5019887;28;20221;-63
2021/06/26 13:49:54;;;;;;;3.28;2.97;;;;;;;;;;5019283;28;20218;-63
2021/06/26 13:52:21;;;;;;;3.20;2.90;;;;;;;;;;5018611;28;20278;-63
2021/06/26 13:54:46;;;;;;;2.70;2.50;;;;;;;;;;5018369;28;20218;-63
2021/06/26 13:57:11;;;;;;;2.90;2.70;;;;;;;;;;5017902;28;20233;-63
2021/06/26 13:59:36;;;;;;;2.53;2.33;;;;;;;;;;5016730;28;20230;-62
2021/06/26 14:02:02;;;;;;;2.80;2.60;;;;;;;;;;5016884;28;20348;-62
2021/06/26 14:04:27;;;;;;;2.80;2.60;;;;;;;;;;5015854;28;20244;-63
2021/06/26 14:06:52;;;;;;;2.60;2.40;;;;;;;;;;5016729;28;20248;-63
2021/06/26 14:09:17;;;;;;;3.00;2.80;;;;;;;;;;5015708;28;20233;-63
2021/06/26 14:11:43;;;;;;;2.67;2.47;;;;;;;;;;5015972;28;20564;-63
2021/06/26 14:14:08;;;;;;;2.90;2.70;;;;;;;;;;5015699;28;20226;-63
2021/06/26 14:16:33;;;;;;;3.67;3.00;;;;;;;;;;5015446;28;20230;-63
2021/06/26 14:18:58;;;;;;;3.67;3.37;;;;;;;;;;5015233;28;20218;-62
2021/06/26 14:21:25;;;;;;;3.20;3.00;;;;;;;;;;5014778;28;20326;-62
2021/06/26 14:23:50;;;;;;;3.70;3.40;;;;;;;;;;5015246;28;20309;-62
2021/06/26 14:26:15;;;;;;;3.60;3.30;;;;;;;;;;5014879;28;20973;-61
2021/06/26 14:28:41;;;;;;;3.37;3.07;;;;;;;;;;5015032;28;20230;-61
2021/06/26 14:31:07;;;;;;;3.40;3.20;;;;;;;;;;5015140;28;20310;-62
2021/06/26 14:33:32;;;;;;;3.40;3.13;;;;;;;;;;5014551;28;21613;-61
2021/06/26 14:35:57;;;;;;;3.67;3.37;;;;;;;;;;5015120;28;20288;-61
2021/06/26 14:38:23;;;;;;;3.57;3.27;;;;;;;;;;5014584;28;20218;-61
2021/06/26 14:40:48;;;;;;;3.33;2.90;;;;;;;;;;5014997;28;20238;-61